Hauptseite
METAR-TAF:

METAR-TAF

Flughäfen :

Flughafen Malmen

Linköping, Schweden

Breite: 58-24N, Länge: 015-31E, Höhe: 93 m

Beobachtung

Neuester Wetterbericht von vor 32 Minuten, um 18:20 UTC
Wind 7 kt aus Ost, variierte zwischen Ost/Nordost und Südost
Temperatur 20°C
Luftfeuchtigkeit 60%
Luftdruck 1018 hPa
Sichtweite 10 km oder mehr

METAR: ESCF 231820Z AUTO 10007KT 070V130 9999 NCD 20/12 Q1018

Zeit: 20:52 (18:52 UTC)

Prognose

Neuester Wetterbericht von vor 7 Stunden und 27 Minuten, um 11:25 UTC
Gültige Prognose vom 23 um 12 UTC bis 23 um 15 UTC
Wind 12 kt aus Ost, Böen bis zu 22 kt
Sichtweite 10 km oder mehr
keine Wolken unter 1500 m und keine Kumulonimbus oder Gewitterwolken

TAF: ESCF 231125Z 2312/2315 09012G22KT CAVOK RMK MIL

Wetterbeobachtungen und Prognosen von mehr als 4000 Flughäfen (METAR und TAF Bericht).

Die verfügbaren Stationen werden durch gelbe und rote Markierungen auf der Karte dargestellt.

Führen Sie die Maus auf sie, um den Namen der Station zu sehen.

Darauf klicken, um die Beobachtung von Wetterbeobachtungen und Prognosen zu sehen.

Um die Karte zu ändern : klicken Sie auf den grünen Tasten mit einem schwarzen Kreuz Zum Vergrößern, auf den grünen Button mit einem Gedankenstrich zu verkleinern, oder auf die grünen Pfeile für benachbarte Karten.


METAR-TAF: